Home > Products > Valid Products > TAF

000
FTUS45 KBYZ 301730
TAFBIL
TAF
KBIL 301730Z 3018/3118 30010KT P6SM VCSH SCT060 BKN120
     FM302000 30015G22KT P6SM VCTS SCT050CB BKN090
     FM310300 30010KT P6SM SCT060 SCT200
     FM311000 28015G25KT P6SM SCT100=



000
FTUS45 KBYZ 301730
TAFSHR
TAF
KSHR 301730Z 3018/3118 VRB06KT P6SM -SHRA BKN060 BKN120
     FM302000 32015G25KT P6SM VCTS BKN040CB OVC110
     FM310300 31010KT P6SM SCT060 BKN120
     FM311300 31017G29KT P6SM SCT060 BKN200=



000
FTUS45 KBYZ 301730
TAFMLS
TAF
KMLS 301730Z 3018/3118 32014G24KT P6SM VCSH SCT050 BKN090
     FM301930 33015G30KT P6SM VCTS BKN040CB OVC100
     FM310300 29012KT P6SM FEW070 SCT150
     FM310900 27018G27KT P6SM VCSH FEW020 BKN040=



000
FTUS45 KBYZ 301730
TAFLVM
TAF
KLVM 301730Z 3018/3118 30010KT P6SM VCSH FEW040 BKN060
     FM301900 28018G28KT P6SM VCSH SCT050 BKN200
     FM310300 28012KT P6SM FEW080 SCT220
     FM311200 25021G29KT P6SM SCT100=



000
FTUS45 KBYZ 301127
TAFLVM
TAF
KLVM 301127Z 3012/3112 30010KT P6SM VCSH BKN060
     FM301700 28018G28KT P6SM VCSH SCT050 BKN200
     FM310300 28015KT P6SM FEW080 SCT200=



000
FTUS45 KBYZ 301127
TAFBIL
TAF
KBIL 301127Z 3012/3112 30010KT P6SM VCSH SCT050 OVC150
     FM301900 30015G22KT P6SM VCTS FEW050CB BKN150
     FM310400 30010KT P6SM SCT060 SCT200
     FM311000 30015G25KT P6SM SCT100=



000
FTUS45 KBYZ 301127
TAFSHR
TAF
KSHR 301127Z 3012/3112 32015G25KT P6SM VCSH FEW060 BKN120
     FM301600 31015G30KT P6SM VCSH BKN040 OVC080
     FM301900 32015G25KT P6SM VCTS BKN040CB OVC100
     FM302100 32015KT 4SM TSRA OVC040CB
     FM310300 31010KT P6SM SCT040 BKN120=



000
FTUS45 KBYZ 301127
TAFMLS
TAF
KMLS 301127Z 3012/3112 34015G22KT 5SM -SHRA FEW020 BKN040 OVC080
     FM301700 32015G22KT P6SM VCSH SCT030 BKN060
     FM302000 31015G25KT P6SM VCTS BKN050CB OVC100
     FM310200 30018KT P6SM FEW060 SCT150=



000
FTUS45 KBYZ 300443 AAA
TAFBIL
TAF AMD
KBIL 300443Z 3005/3024 25004KT P6SM VCTS FEW050CB SCT200
      TEMPO 3005/3006 P6SM -TSRA BKN040CB
     FM300800 32012KT P6SM VCSH SCT040 BKN060
     FM301500 33015G25KT P6SM VCSH SCT040 BKN060
     FM302100 34017G33KT P6SM VCSH SCT050 BKN070=



000
FTUS45 KBYZ 291725
TAFLVM
TAF
KLVM 291725Z 2918/3018 26010KT P6SM SCT100 SCT250
     FM292200 27010KT P6SM VCSH SCT050 SCT100 BKN200
     FM300200 24007KT P6SM FEW050 BKN120
     FM300900 29015KT P6SM VCSH SCT040 BKN080=



000
FTUS45 KBYZ 281132
TAFSHR
TAF
KSHR 281132Z 2812/2912 30010KT P6SM VCFG FEW010 SCT050 SCT120
     FM281500 30010KT P6SM SCT050 SCT150
     FM282000 30010KT P6SM VCSH SCT050 SCT120=



000
FTUS45 KBYZ 281132
TAFMLS
TAF
KMLS 281132Z 2812/2912 VRB05KT P6SM VCSH SCT060 SCT100
     FM281800 30014KT P6SM SCT040 SCT200
     FM290200 VRB05KT P6SM FEW070 SCT200=



000
FTUS45 KBYZ 281132
TAFLVM
TAF
KLVM 281132Z 2812/2912 VRB05KT P6SM VCFG SCT005 SCT025 BKN040
     FM281600 27008KT P6SM SCT040 BKN200
     FM281900 28010KT P6SM VCSH SCT040 BKN150
     FM290200 VRB05KT P6SM FEW050 SCT200=



000
FTUS45 KBYZ 281132
TAFBIL
TAF
KBIL 281132Z 2812/2912 VRB05KT P6SM VCFG FEW005 SCT050 BKN100
     FM281600 27008KT P6SM SCT060 SCT250
     FM282100 27010KT P6SM VCSH BKN050 BKN150
     FM290200 VRB05KT P6SM FEW050 SCT150=



000
FTUS45 KBYZ 280047 AAB
TAFBIL
TAF AMD
KBIL 280047Z 2801/2824 10012KT P6SM VCTS BKN060CB OVC070
     FM280300 32015KT P6SM VCSH BKN040
     FM280900 28007KT P6SM FEW050=



000
FTUS45 KBYZ 280046 AAB
TAFLVM
TAF AMD
KLVM 280046Z 2801/2824 24015G20KT 4SM RA BKN045
     FM280200 26011KT P6SM VCSH SCT040 BKN150
     FM280900 25008KT P6SM SCT060=



000
FTUS45 KBYZ 280014 AAA
TAFLVM
TAF AMD
KLVM 280014Z 2800/2824 24011KT P6SM VCTS FEW080CB
      TEMPO 2800/2801 24020G30KT 4SM TSRA
     FM280200 26011KT P6SM VCSH SCT040 BKN150
     FM280900 25008KT P6SM SCT060=



000
FTUS45 KBYZ 272355 AAA
TAFBIL
TAF AMD
KBIL 272355Z 2800/2824 02020G30KT P6SM TSRA BKN060CB OVC070
     FM280100 01010G20KT P6SM VCTS BKN050CB
     FM280300 32015KT P6SM VCSH BKN040
     FM280900 28007KT P6SM FEW050=



    US Dept of Commerce
    National Oceanic and Atmospheric Administration
    National Weather Service
    1325 East West Highway
    Silver Spring, MD 20910
    Page Author: NWS Internet Services Team
Disclaimer
Information Quality
Credits
Glossary
Privacy Policy
Freedom of Information Act (FOIA)
About Us
Career Opportunities